Target — 9HA2149 — position and weather

sailwx.info

Track history (hours):
 
Tides and Currents Weather Stations Pressure Air Temp Water Temp Dewpoint Dewpoint Depression Visibility Wind Speed Wind Dir Waves Ship Positions

Target

Last reported at 2015-Mar-09 00:29 UTC. Time now 2015-Mar-27 07:01 UTC.
Position N 36°03' W 025°49'.
Warning: this ship's position is 18 days out of date.

Length 250 m; draft 12 m.

Type: Tanker. MMSI: 248057000.

Date/timePositionNaut miles runAvg speedWind from/ knotsBaromVisibWave heightAir tempDewpointWater temp
2015-Mar-09 00:29N 36°03' W 025°49'1111.5
2015-Mar-08 23:33N 36°09' W 025°39'1111.3
2015-Mar-08 22:34N 36°16' W 025°27'1211.6
2015-Mar-08 21:34N 36°22' W 025°16'1212.0
2015-Mar-08 20:34N 36°30' W 025°04'1211.9
2015-Mar-08 19:33N 36°37' W 024°52'1212.1
2015-Mar-08 18:34N 36°45' W 024°41'1211.9
2015-Mar-08 17:34N 36°52' W 024°29'1211.5
2015-Mar-08 16:33N 36°59' W 024°18'1211.5
2015-Mar-08 15:34N 37°07' W 024°07'1111.4
2015-Mar-08 14:34N 37°15' W 023°56'1111.5
2015-Mar-08 13:34N 37°23' W 023°46'1211.7
2015-Mar-08 12:33N 37°30' W 023°35'1211.8
2015-Mar-08 11:33N 37°38' W 023°23'1611.7
2015-Mar-08 10:12N 37°48' W 023°08'911.8
2015-Mar-08 09:26N 37°54' W 022°59'1111.8
2015-Mar-08 08:30N 38°01' W 022°48'1211.6
2015-Mar-08 07:28N 38°09' W 022°37'1111.8
2015-Mar-08 06:33N 38°16' W 022°27'  
2015-Mar-03 18:32N 50°32' E 000°18'9 9.4
2015-Mar-03 17:34N 50°34' E 000°32'1110.7
2015-Mar-03 16:34N 50°40' E 000°46'1111.3
2015-Mar-03 15:33N 50°47' E 001°01'1310.9
2015-Mar-03 14:23N 50°54' E 001°17'810.1
2015-Mar-03 13:33N 51°00' E 001°26'9 8.9
2015-Mar-03 12:33N 51°07' E 001°36'8 8.2
2015-Mar-03 11:34N 51°13' E 001°45'9 8.6
2015-Mar-03 10:33N 51°20' E 001°52'1110.6
2015-Mar-03 09:33N 51°29' E 002°02'1211.5
2015-Mar-03 08:33N 51°38' E 002°13'  
Track history (hours):
 
Tides and Currents Weather Stations Pressure Air Temp Water Temp Dewpoint Dewpoint Depression Visibility Wind Speed Wind Dir Waves Ship Positions

Target

Last reported at 2015-Mar-09 00:29 UTC. Time now 2015-Mar-27 07:01 UTC.
Position N 36°03' W 025°49'.
Warning: this ship's position is 18 days out of date.

Length 250 m; draft 12 m.

Type: Tanker. MMSI: 248057000.

Date/timePositionNaut miles runAvg speedWind from/ knotsBaromVisibWave heightAir tempDewpointWater temp
2015-Mar-09 00:29N 36°03' W 025°49'1111.5
2015-Mar-08 23:33N 36°09' W 025°39'1111.3
2015-Mar-08 22:34N 36°16' W 025°27'1211.6
2015-Mar-08 21:34N 36°22' W 025°16'1212.0
2015-Mar-08 20:34N 36°30' W 025°04'1211.9
2015-Mar-08 19:33N 36°37' W 024°52'1212.1
2015-Mar-08 18:34N 36°45' W 024°41'1211.9
2015-Mar-08 17:34N 36°52' W 024°29'1211.5
2015-Mar-08 16:33N 36°59' W 024°18'1211.5
2015-Mar-08 15:34N 37°07' W 024°07'1111.4
2015-Mar-08 14:34N 37°15' W 023°56'1111.5
2015-Mar-08 13:34N 37°23' W 023°46'1211.7
2015-Mar-08 12:33N 37°30' W 023°35'1211.8
2015-Mar-08 11:33N 37°38' W 023°23'1611.7
2015-Mar-08 10:12N 37°48' W 023°08'911.8
2015-Mar-08 09:26N 37°54' W 022°59'1111.8
2015-Mar-08 08:30N 38°01' W 022°48'1211.6
2015-Mar-08 07:28N 38°09' W 022°37'1111.8
2015-Mar-08 06:33N 38°16' W 022°27'  
2015-Mar-03 18:32N 50°32' E 000°18'9 9.4
2015-Mar-03 17:34N 50°34' E 000°32'1110.7
2015-Mar-03 16:34N 50°40' E 000°46'1111.3
2015-Mar-03 15:33N 50°47' E 001°01'1310.9
2015-Mar-03 14:23N 50°54' E 001°17'810.1
2015-Mar-03 13:33N 51°00' E 001°26'9 8.9
2015-Mar-03 12:33N 51°07' E 001°36'8 8.2
2015-Mar-03 11:34N 51°13' E 001°45'9 8.6
2015-Mar-03 10:33N 51°20' E 001°52'1110.6
2015-Mar-03 09:33N 51°29' E 002°02'1211.5
2015-Mar-03 08:33N 51°38' E 002°13'  

Dump ship's entire track history